Time;durP1;ratioP1;P1;durP2;ratioP2;P2;SDS_P1;SDS_P2;PMS_P1;PMS_P2;Temp;Humidity;BMP_temperature;BMP_pressure;BME280_temperature;BME280_humidity;BME280_pressure;Samples;Min_cycle;Max_cycle;Signal;HPM_P1;HPM_P2
2021/05/17 00:00:57;;;;;;;6.20;2.90;;;;;;;;;;5075853;28;20036;-81
2021/05/17 00:03:23;;;;;;;4.07;2.50;;;;;;;;;;5091488;28;20041;-81
2021/05/17 00:05:49;;;;;;;4.10;2.53;;;;;;;;;;5091495;28;20040;-81
2021/05/17 00:08:15;;;;;;;5.10;2.65;;;;;;;;;;5074379;28;20036;-81
2021/05/17 00:10:42;;;;;;;2.97;2.25;;;;;;;;;;5091251;28;20090;-82
2021/05/17 00:13:08;;;;;;;4.93;2.50;;;;;;;;;;5074519;28;20033;-81
2021/05/17 00:15:34;;;;;;;3.55;2.03;;;;;;;;;;5075630;28;20036;-81
2021/05/17 00:18:00;;;;;;;3.13;2.08;;;;;;;;;;5075462;28;20033;-81
2021/05/17 00:20:26;;;;;;;2.65;1.85;;;;;;;;;;5091223;28;20048;-81
2021/05/17 00:22:52;;;;;;;3.30;2.17;;;;;;;;;;5075391;28;20032;-80
2021/05/17 00:25:22;;;;;;;3.65;2.00;;;;;;;;;;5091016;28;20036;-81
2021/05/17 00:27:49;;;;;;;5.15;2.15;;;;;;;;;;5074166;28;20480;-81
2021/05/17 00:30:15;;;;;;;5.10;1.83;;;;;;;;;;5090906;28;20033;-81
2021/05/17 00:32:41;;;;;;;4.18;1.98;;;;;;;;;;5075242;28;20028;-80
2021/05/17 00:35:08;;;;;;;3.58;1.90;;;;;;;;;;5090906;28;20132;-80
2021/05/17 00:37:34;;;;;;;2.97;2.00;;;;;;;;;;5074834;28;20076;-81
2021/05/17 00:40:00;;;;;;;3.05;1.75;;;;;;;;;;5090742;28;20067;-81
2021/05/17 00:42:26;;;;;;;2.30;1.75;;;;;;;;;;5090846;28;20047;-81
2021/05/17 00:44:52;;;;;;;4.32;1.88;;;;;;;;;;5075017;28;20119;-81
2021/05/17 00:47:18;;;;;;;2.75;2.08;;;;;;;;;;5074889;28;20450;-81
2021/05/17 00:49:45;;;;;;;4.28;1.80;;;;;;;;;;5074916;28;20098;-80
2021/05/17 00:52:12;;;;;;;4.72;1.92;;;;;;;;;;5073635;28;20476;-81
2021/05/17 00:54:38;;;;;;;4.03;1.95;;;;;;;;;;5090459;28;20036;-81
2021/05/17 00:57:05;;;;;;;3.65;2.50;;;;;;;;;;5090246;28;20115;-81
2021/05/17 00:59:32;;;;;;;4.43;2.47;;;;;;;;;;5073640;28;20045;-81
2021/05/17 01:01:58;;;;;;;3.13;2.20;;;;;;;;;;5073680;28;20484;-81
2021/05/17 01:04:24;;;;;;;5.10;2.85;;;;;;;;;;5090462;28;20040;-81
2021/05/17 01:06:51;;;;;;;5.13;2.45;;;;;;;;;;5090258;28;20036;-81
2021/05/17 01:09:17;;;;;;;5.00;2.83;;;;;;;;;;5072955;28;20093;-81
2021/05/17 01:11:43;;;;;;;6.07;3.30;;;;;;;;;;5090322;28;20039;-81
2021/05/17 01:14:09;;;;;;;6.82;3.35;;;;;;;;;;5074520;28;20036;-81
2021/05/17 01:16:36;;;;;;;11.05;3.47;;;;;;;;;;5089936;28;20040;-82
2021/05/17 01:19:02;;;;;;;8.63;3.60;;;;;;;;;;5074334;28;20044;-82
2021/05/17 01:21:34;;;;;;;8.70;3.63;;;;;;;;;;5090079;28;20068;-82
2021/05/17 01:24:00;;;;;;;6.90;3.50;;;;;;;;;;5074467;28;20149;-82
2021/05/17 01:26:30;;;;;;;7.15;3.55;;;;;;;;;;5073151;28;20052;-82
2021/05/17 01:28:56;;;;;;;5.82;3.38;;;;;;;;;;5089901;28;20086;-81
2021/05/17 01:31:22;;;;;;;6.72;3.28;;;;;;;;;;5089737;28;20472;-82
2021/05/17 01:33:49;;;;;;;5.97;3.88;;;;;;;;;;5074075;28;20439;-81
2021/05/17 01:36:15;;;;;;;6.97;3.78;;;;;;;;;;5073760;28;20052;-82
2021/05/17 01:38:45;;;;;;;4.30;3.30;;;;;;;;;;5072746;28;20481;-82
2021/05/17 01:41:12;;;;;;;9.25;3.95;;;;;;;;;;5073989;28;20032;-82
2021/05/17 01:43:41;;;;;;;6.53;3.70;;;;;;;;;;5089508;28;20036;-82
2021/05/17 01:46:08;;;;;;;5.53;3.63;;;;;;;;;;5073785;28;20060;-82
2021/05/17 01:48:36;;;;;;;6.63;3.72;;;;;;;;;;5073856;28;20037;-82
2021/05/17 01:51:06;;;;;;;6.57;3.50;;;;;;;;;;5072645;28;20044;-80
2021/05/17 01:53:32;;;;;;;6.72;3.78;;;;;;;;;;5089266;28;20484;-82
2021/05/17 01:55:58;;;;;;;7.28;3.53;;;;;;;;;;5072527;28;20082;-81
2021/05/17 01:58:25;;;;;;;6.80;3.53;;;;;;;;;;5073804;28;20098;-82
2021/05/17 02:00:51;;;;;;;8.50;3.50;;;;;;;;;;5089116;28;20114;-81
2021/05/17 02:03:17;;;;;;;5.72;3.60;;;;;;;;;;5073584;28;20032;-81
2021/05/17 02:05:46;;;;;;;6.13;3.70;;;;;;;;;;5073592;28;20036;-81
2021/05/17 02:08:12;;;;;;;6.93;3.72;;;;;;;;;;5072263;28;20043;-81
2021/05/17 02:10:39;;;;;;;10.00;4.50;;;;;;;;;;5089200;28;20208;-81
2021/05/17 02:13:05;;;;;;;7.47;4.22;;;;;;;;;;5088947;28;20086;-81
2021/05/17 02:15:31;;;;;;;5.97;3.72;;;;;;;;;;5089064;28;20392;-81
2021/05/17 02:18:01;;;;;;;7.10;4.22;;;;;;;;;;5088938;28;20060;-81
2021/05/17 02:20:27;;;;;;;8.82;4.45;;;;;;;;;;5072546;28;20036;-81
2021/05/17 02:22:53;;;;;;;8.07;4.25;;;;;;;;;;5072047;28;20044;-80
2021/05/17 02:25:19;;;;;;;7.88;3.67;;;;;;;;;;5088807;28;20043;-81
2021/05/17 02:27:45;;;;;;;11.18;4.28;;;;;;;;;;5072973;28;20044;-81
2021/05/17 02:30:13;;;;;;;9.57;4.10;;;;;;;;;;5071800;28;20064;-81
2021/05/17 02:32:39;;;;;;;7.43;4.07;;;;;;;;;;5072971;28;20082;-81
2021/05/17 02:35:06;;;;;;;7.97;4.63;;;;;;;;;;5072959;28;20041;-81
2021/05/17 02:37:33;;;;;;;10.18;5.53;;;;;;;;;;5072591;28;20063;-81
2021/05/17 02:39:59;;;;;;;8.07;4.22;;;;;;;;;;5088473;28;20032;-80
2021/05/17 02:42:25;;;;;;;8.30;3.95;;;;;;;;;;5072777;28;20040;-80
2021/05/17 02:44:51;;;;;;;10.93;5.30;;;;;;;;;;5088372;28;20036;-80
2021/05/17 02:47:18;;;;;;;13.60;6.57;;;;;;;;;;5072643;28;20669;-81
2021/05/17 02:49:44;;;;;;;8.60;5.28;;;;;;;;;;5072707;28;20076;-81
2021/05/17 02:52:11;;;;;;;10.32;5.30;;;;;;;;;;5072614;28;20041;-81
2021/05/17 02:54:40;;;;;;;12.50;6.85;;;;;;;;;;5072566;28;20039;-81
2021/05/17 02:57:15;;;;;;;11.68;6.35;;;;;;;;;;5071155;28;20090;-82
2021/05/17 02:59:44;;;;;;;15.73;7.10;;;;;;;;;;5088080;28;20049;-82
2021/05/17 03:02:10;;;;;;;10.15;5.10;;;;;;;;;;5072443;28;20033;-82
2021/05/17 03:04:36;;;;;;;12.30;5.80;;;;;;;;;;5087987;28;20392;-81
2021/05/17 03:07:07;;;;;;;10.55;5.72;;;;;;;;;;5088026;28;20119;-82
2021/05/17 03:09:33;;;;;;;12.90;6.85;;;;;;;;;;5087847;28;20376;-80
2021/05/17 03:11:59;;;;;;;12.45;7.20;;;;;;;;;;5088068;28;20036;-82
2021/05/17 03:14:25;;;;;;;12.57;7.00;;;;;;;;;;5087911;28;20040;-82
2021/05/17 03:16:52;;;;;;;12.13;6.97;;;;;;;;;;5087730;28;20498;-82
2021/05/17 03:19:18;;;;;;;13.32;7.70;;;;;;;;;;5072251;28;20040;-81
2021/05/17 03:21:44;;;;;;;12.32;6.88;;;;;;;;;;5087694;28;20040;-81
2021/05/17 03:24:10;;;;;;;14.90;8.45;;;;;;;;;;5087620;28;20043;-82
2021/05/17 03:26:36;;;;;;;16.27;8.82;;;;;;;;;;5087715;28;20054;-81
2021/05/17 03:29:03;;;;;;;17.52;8.55;;;;;;;;;;5087884;28;20201;-81
2021/05/17 03:31:29;;;;;;;14.55;8.02;;;;;;;;;;5072033;28;20089;-81
2021/05/17 03:33:58;;;;;;;13.65;7.97;;;;;;;;;;5072124;28;20044;-80
2021/05/17 03:36:24;;;;;;;14.48;8.50;;;;;;;;;;5087158;28;20052;-80
2021/05/17 03:38:50;;;;;;;16.98;9.07;;;;;;;;;;5071922;28;20059;-81
2021/05/17 03:41:16;;;;;;;15.70;8.48;;;;;;;;;;5072003;28;20391;-81
2021/05/17 03:43:42;;;;;;;19.70;9.52;;;;;;;;;;5087557;28;20099;-82
2021/05/17 03:46:08;;;;;;;15.80;8.25;;;;;;;;;;5071917;28;20044;-81
2021/05/17 03:48:41;;;;;;;13.18;8.73;;;;;;;;;;5071942;28;20039;-81
2021/05/17 03:51:08;;;;;;;17.33;8.73;;;;;;;;;;5071889;28;20033;-81
2021/05/17 03:53:34;;;;;;;16.40;8.50;;;;;;;;;;5087549;28;20384;-81
2021/05/17 03:56:01;;;;;;;22.35;9.70;;;;;;;;;;5087395;28;20504;-81
2021/05/17 03:58:29;;;;;;;16.05;8.93;;;;;;;;;;5070760;28;20523;-81
2021/05/17 04:00:57;;;;;;;15.52;8.57;;;;;;;;;;5071806;28;20506;-81
2021/05/17 04:03:27;;;;;;;16.00;9.48;;;;;;;;;;5070697;28;20048;-81
2021/05/17 04:06:16;;;;;;;17.15;9.02;;;;;;;;;;5071664;28;20036;-81
2021/05/17 04:13:53;;;;;;;16.85;9.65;;;;;;;;;;5084823;28;20036;-81
2021/05/17 04:16:19;;;;;;;18.10;10.05;;;;;;;;;;5087009;28;20067;-81
2021/05/17 04:18:47;;;;;;;14.20;8.45;;;;;;;;;;5071618;28;20123;-81
2021/05/17 04:21:13;;;;;;;15.07;8.73;;;;;;;;;;5071592;28;20111;-81
2021/05/17 04:23:39;;;;;;;18.73;9.75;;;;;;;;;;5071575;28;20111;-81
2021/05/17 04:26:05;;;;;;;15.65;8.77;;;;;;;;;;5070401;28;20036;-82
2021/05/17 04:28:31;;;;;;;18.20;9.65;;;;;;;;;;5071482;28;20044;-81
2021/05/17 04:30:57;;;;;;;17.60;10.10;;;;;;;;;;5070339;28;20712;-82
2021/05/17 04:33:23;;;;;;;20.20;9.50;;;;;;;;;;5070431;28;20063;-81
2021/05/17 04:35:49;;;;;;;15.45;9.05;;;;;;;;;;5086924;28;20036;-81
2021/05/17 04:38:15;;;;;;;18.88;9.23;;;;;;;;;;5071388;28;20119;-81
2021/05/17 04:40:43;;;;;;;15.73;8.77;;;;;;;;;;5071494;28;20496;-81
2021/05/17 04:43:09;;;;;;;19.58;10.40;;;;;;;;;;5071429;28;20484;-82
2021/05/17 04:45:35;;;;;;;18.10;9.77;;;;;;;;;;5073840;28;20064;-85
2021/05/17 04:48:01;;;;;;;19.10;10.10;;;;;;;;;;5073720;28;20103;-82
2021/05/17 04:50:27;;;;;;;19.52;10.07;;;;;;;;;;5073803;28;20044;-82
2021/05/17 04:52:53;;;;;;;19.13;10.25;;;;;;;;;;5057156;28;20147;-81
2021/05/17 04:55:20;;;;;;;18.92;9.90;;;;;;;;;;5074861;28;20094;-82
2021/05/17 04:57:46;;;;;;;18.90;10.10;;;;;;;;;;5090273;28;20051;-81
2021/05/17 05:00:13;;;;;;;18.83;10.30;;;;;;;;;;5074911;28;20094;-81
2021/05/17 05:02:39;;;;;;;15.35;8.13;;;;;;;;;;5074768;28;20496;-81
2021/05/17 05:05:05;;;;;;;21.95;10.93;;;;;;;;;;5090547;28;20555;-80
2021/05/17 05:07:31;;;;;;;18.27;10.48;;;;;;;;;;5073486;28;20044;-82
2021/05/17 05:09:57;;;;;;;19.85;10.77;;;;;;;;;;5073461;28;20522;-82
2021/05/17 05:12:23;;;;;;;17.52;10.27;;;;;;;;;;5074583;28;20033;-82
2021/05/17 05:14:49;;;;;;;17.85;10.50;;;;;;;;;;5073382;28;20400;-82
2021/05/17 05:17:15;;;;;;;17.33;10.25;;;;;;;;;;5073236;28;20036;-82
2021/05/17 05:19:41;;;;;;;14.02;9.20;;;;;;;;;;5073372;28;20044;-82
2021/05/17 05:22:07;;;;;;;18.40;10.77;;;;;;;;;;5090285;28;20480;-82
2021/05/17 05:24:33;;;;;;;22.48;10.93;;;;;;;;;;5074552;28;20037;-82
2021/05/17 05:27:07;;;;;;;19.75;10.25;;;;;;;;;;5074163;28;20040;-81
2021/05/17 05:34:46;;;;;;;16.95;9.88;;;;;;;;;;5073236;28;20047;-82
2021/05/17 05:37:13;;;;;;;17.90;9.05;;;;;;;;;;5073803;28;20052;-82
2021/05/17 05:39:39;;;;;;;16.92;10.15;;;;;;;;;;5089670;28;20090;-82
2021/05/17 05:42:05;;;;;;;14.43;8.77;;;;;;;;;;5065940;28;20433;-81
2021/05/17 05:44:32;;;;;;;17.13;9.90;;;;;;;;;;5055345;28;20476;-81
2021/05/17 05:46:58;;;;;;;14.65;9.23;;;;;;;;;;5071891;28;20051;-82
2021/05/17 05:49:24;;;;;;;14.48;8.50;;;;;;;;;;5056142;28;20365;-81
2021/05/17 05:51:51;;;;;;;13.40;8.15;;;;;;;;;;5056034;28;20101;-82
2021/05/17 05:54:17;;;;;;;13.35;8.68;;;;;;;;;;5072416;28;20040;-81
2021/05/17 05:56:43;;;;;;;17.45;8.98;;;;;;;;;;5073589;28;20480;-82
2021/05/17 05:59:09;;;;;;;13.32;8.35;;;;;;;;;;5056037;28;20078;-81
2021/05/17 06:01:35;;;;;;;15.25;8.75;;;;;;;;;;5073813;28;20036;-81
2021/05/17 06:04:01;;;;;;;15.07;8.73;;;;;;;;;;5073546;28;20491;-81
2021/05/17 06:06:27;;;;;;;12.48;7.68;;;;;;;;;;5072199;28;20072;-80
2021/05/17 06:08:53;;;;;;;15.30;8.98;;;;;;;;;;5073552;28;20367;-81
2021/05/17 06:11:20;;;;;;;13.23;8.43;;;;;;;;;;5073421;28;20527;-83
2021/05/17 06:13:48;;;;;;;13.98;8.02;;;;;;;;;;5073355;28;20434;-84
2021/05/17 06:16:14;;;;;;;12.82;7.45;;;;;;;;;;5055698;28;20040;-84
2021/05/17 06:18:40;;;;;;;14.82;9.05;;;;;;;;;;5039252;28;20036;-84
2021/05/17 06:21:06;;;;;;;12.48;7.63;;;;;;;;;;5072089;28;20231;-84
2021/05/17 06:23:33;;;;;;;13.93;8.05;;;;;;;;;;5071949;28;20033;-84
2021/05/17 06:25:59;;;;;;;13.13;7.85;;;;;;;;;;5059474;28;20036;-85
2021/05/17 06:28:25;;;;;;;13.82;8.00;;;;;;;;;;5071799;28;20438;-85
2021/05/17 06:30:54;;;;;;;13.90;8.23;;;;;;;;;;5055316;28;20396;-84
2021/05/17 06:33:21;;;;;;;14.23;8.25;;;;;;;;;;5071917;28;20033;-84
2021/05/17 06:35:50;;;;;;;13.07;8.48;;;;;;;;;;5054993;28;20115;-84
2021/05/17 06:38:16;;;;;;;14.95;8.63;;;;;;;;;;5055533;28;20285;-83
2021/05/17 06:40:43;;;;;;;10.90;7.75;;;;;;;;;;5072988;28;20472;-82
2021/05/17 06:43:09;;;;;;;14.05;8.15;;;;;;;;;;5071657;28;20055;-86
2021/05/17 06:45:35;;;;;;;14.52;7.90;;;;;;;;;;5054999;28;20040;-81
2021/05/17 06:48:01;;;;;;;13.90;8.80;;;;;;;;;;5072647;28;20506;-82
2021/05/17 06:50:27;;;;;;;17.60;9.20;;;;;;;;;;5071419;28;20385;-81
2021/05/17 06:52:53;;;;;;;12.40;7.32;;;;;;;;;;5071510;28;20090;-80
2021/05/17 06:55:22;;;;;;;7.65;5.10;;;;;;;;;;5072579;28;20131;-83
2021/05/17 07:00:31;;;;;;;9.68;5.57;;;;;;;;;;5071445;28;20063;-81
2021/05/17 07:02:58;;;;;;;11.10;6.85;;;;;;;;;;5072430;28;20036;-81
2021/05/17 07:05:24;;;;;;;10.38;7.22;;;;;;;;;;5072501;28;20084;-81
2021/05/17 07:13:01;;;;;;;11.07;7.18;;;;;;;;;;5071210;28;20488;-82
2021/05/17 07:15:27;;;;;;;11.85;7.47;;;;;;;;;;5070921;28;20047;-82
2021/05/17 07:17:53;;;;;;;11.25;7.25;;;;;;;;;;5070885;28;20044;-82
2021/05/17 07:20:29;;;;;;;13.10;7.82;;;;;;;;;;5070956;28;20045;-83
2021/05/17 07:25:40;;;;;;;15.52;8.00;;;;;;;;;;5072035;28;20041;-83
2021/05/17 07:28:06;;;;;;;14.75;9.15;;;;;;;;;;5070756;28;20087;-83
2021/05/17 07:30:33;;;;;;;13.93;8.45;;;;;;;;;;5070947;28;20097;-82
2021/05/17 07:33:00;;;;;;;14.27;8.77;;;;;;;;;;5072855;28;20373;-82
2021/05/17 07:35:30;;;;;;;12.32;8.13;;;;;;;;;;5072359;28;20498;-82
2021/05/17 07:37:56;;;;;;;11.55;7.93;;;;;;;;;;5072387;28;20037;-82
2021/05/17 07:40:23;;;;;;;11.40;7.20;;;;;;;;;;5071994;28;20044;-82
2021/05/17 07:42:49;;;;;;;12.63;7.68;;;;;;;;;;5072103;28;20090;-82
2021/05/17 07:45:15;;;;;;;13.65;7.97;;;;;;;;;;5072127;28;20040;-82
2021/05/17 07:47:41;;;;;;;12.30;7.18;;;;;;;;;;5054327;28;20045;-82
2021/05/17 07:50:07;;;;;;;9.45;6.85;;;;;;;;;;5072015;28;20037;-82
2021/05/17 07:52:33;;;;;;;10.77;6.70;;;;;;;;;;5071966;28;20041;-82
2021/05/17 07:54:59;;;;;;;12.85;7.10;;;;;;;;;;5070722;28;20659;-82
2021/05/17 07:57:25;;;;;;;9.30;6.05;;;;;;;;;;5071837;28;20139;-83
2021/05/17 07:59:54;;;;;;;12.23;6.95;;;;;;;;;;5070773;28;20071;-84
2021/05/17 08:02:21;;;;;;;11.43;6.32;;;;;;;;;;5071928;28;20094;-84
2021/05/17 08:04:50;;;;;;;9.05;6.35;;;;;;;;;;5054049;28;20041;-84
2021/05/17 08:07:16;;;;;;;10.32;6.85;;;;;;;;;;5070478;28;20115;-82
2021/05/17 08:09:42;;;;;;;10.45;7.43;;;;;;;;;;5071730;28;20082;-83
2021/05/17 08:12:08;;;;;;;11.10;7.47;;;;;;;;;;5070573;28;20051;-81
2021/05/17 08:14:34;;;;;;;9.13;6.43;;;;;;;;;;5071614;28;20043;-83
2021/05/17 08:17:01;;;;;;;8.18;5.70;;;;;;;;;;5071554;28;20041;-83
2021/05/17 08:19:27;;;;;;;9.52;6.55;;;;;;;;;;5072219;28;20044;-84
2021/05/17 08:21:54;;;;;;;7.43;6.03;;;;;;;;;;5074175;28;20105;-80
2021/05/17 08:24:22;;;;;;;8.65;6.32;;;;;;;;;;5075398;28;20059;-80
2021/05/17 08:26:48;;;;;;;10.32;6.00;;;;;;;;;;5075281;28;20068;-80
2021/05/17 08:29:14;;;;;;;7.30;5.53;;;;;;;;;;5075445;28;20087;-80
2021/05/17 08:31:41;;;;;;;7.22;5.78;;;;;;;;;;5074108;28;20036;-80
2021/05/17 08:34:07;;;;;;;8.55;6.05;;;;;;;;;;5075329;28;20032;-80
2021/05/17 08:36:33;;;;;;;6.82;5.57;;;;;;;;;;5074731;28;20045;-80
2021/05/17 08:38:59;;;;;;;9.85;6.22;;;;;;;;;;5074008;28;20043;-79
2021/05/17 08:41:25;;;;;;;9.02;6.57;;;;;;;;;;5073774;28;20040;-80
2021/05/17 08:43:51;;;;;;;9.32;6.82;;;;;;;;;;5073904;28;20041;-80
2021/05/17 08:46:17;;;;;;;10.45;7.95;;;;;;;;;;5073818;28;20040;-79
2021/05/17 08:48:47;;;;;;;9.32;7.40;;;;;;;;;;5073924;28;20040;-80
2021/05/17 08:51:17;;;;;;;10.88;7.38;;;;;;;;;;5074963;28;20040;-81
2021/05/17 08:53:44;;;;;;;13.00;6.75;;;;;;;;;;5073677;28;20043;-81
2021/05/17 08:56:10;;;;;;;7.85;6.40;;;;;;;;;;5074655;28;20229;-82
2021/05/17 08:58:36;;;;;;;7.97;5.53;;;;;;;;;;5074797;28;20249;-81
2021/05/17 09:01:04;;;;;;;10.00;6.25;;;;;;;;;;5073591;28;20541;-84
2021/05/17 09:03:31;;;;;;;9.90;5.50;;;;;;;;;;5056976;28;20037;-81
2021/05/17 09:05:57;;;;;;;8.38;5.70;;;;;;;;;;5073435;28;20479;-82
2021/05/17 09:08:26;;;;;;;6.22;5.20;;;;;;;;;;5073354;28;20036;-81
2021/05/17 09:10:52;;;;;;;9.00;5.93;;;;;;;;;;5073428;28;20036;-81
2021/05/17 09:13:18;;;;;;;7.25;5.07;;;;;;;;;;5073541;28;20060;-81
2021/05/17 09:15:49;;;;;;;7.68;5.50;;;;;;;;;;5073328;28;20094;-83
2021/05/17 09:18:16;;;;;;;9.02;6.13;;;;;;;;;;5056569;28;20033;-81
2021/05/17 09:20:46;;;;;;;8.80;6.07;;;;;;;;;;5073184;28;20115;-80
2021/05/17 09:23:13;;;;;;;8.55;6.10;;;;;;;;;;5056678;28;20036;-80
2021/05/17 09:25:40;;;;;;;11.07;7.38;;;;;;;;;;5074292;28;20481;-80
2021/05/17 09:28:07;;;;;;;8.73;6.75;;;;;;;;;;5072974;28;20076;-81
2021/05/17 09:30:49;;;;;;;10.13;6.95;;;;;;;;;;5072581;28;20033;-80
2021/05/17 09:33:16;;;;;;;9.10;6.93;;;;;;;;;;5073177;28;20052;-80
2021/05/17 09:35:46;;;;;;;13.60;8.13;;;;;;;;;;5072788;28;20120;-80
2021/05/17 09:38:25;;;;;;;12.25;8.48;;;;;;;;;;5072786;28;20049;-83
2021/05/17 09:41:07;;;;;;;10.40;7.53;;;;;;;;;;5074055;28;20480;-83
2021/05/17 09:43:33;;;;;;;8.90;5.40;;;;;;;;;;5072791;28;20434;-82
2021/05/17 09:45:59;;;;;;;9.38;6.20;;;;;;;;;;5073982;28;20126;-82
2021/05/17 09:48:27;;;;;;;10.43;5.43;;;;;;;;;;5072659;28;20085;-82
2021/05/17 09:50:56;;;;;;;8.40;5.65;;;;;;;;;;5073814;28;20039;-81
2021/05/17 09:53:22;;;;;;;9.57;6.00;;;;;;;;;;5073839;28;20037;-81
2021/05/17 09:55:48;;;;;;;10.35;6.13;;;;;;;;;;5073752;28;20032;-82
2021/05/17 09:58:25;;;;;;;7.15;5.78;;;;;;;;;;5072503;28;20053;-83
2021/05/17 10:01:03;;;;;;;9.93;5.60;;;;;;;;;;5072677;28;20075;-86
2021/05/17 10:03:36;;;;;;;6.90;3.92;;;;;;;;;;5072399;28;20044;-86
2021/05/17 10:06:02;;;;;;;5.28;3.35;;;;;;;;;;5069516;28;20041;-84
2021/05/17 10:08:28;;;;;;;7.97;4.90;;;;;;;;;;5073407;28;20273;-85
2021/05/17 10:10:54;;;;;;;9.88;5.15;;;;;;;;;;5088704;28;20476;-85
2021/05/17 10:13:20;;;;;;;6.90;4.90;;;;;;;;;;5055725;28;20553;-86
2021/05/17 10:15:48;;;;;;;8.75;5.05;;;;;;;;;;5071928;28;20036;-85
2021/05/17 10:18:14;;;;;;;7.75;5.50;;;;;;;;;;5088530;28;20040;-84
2021/05/17 10:20:40;;;;;;;7.63;6.25;;;;;;;;;;5088671;28;20071;-84
2021/05/17 10:23:06;;;;;;;9.70;6.70;;;;;;;;;;5088752;28;20032;-85
2021/05/17 10:25:34;;;;;;;7.95;5.57;;;;;;;;;;5088730;28;20036;-85
2021/05/17 10:28:08;;;;;;;6.22;4.10;;;;;;;;;;5071686;28;20071;-85
2021/05/17 10:30:35;;;;;;;6.32;4.38;;;;;;;;;;5073093;28;20059;-85
2021/05/17 10:33:02;;;;;;;5.45;4.13;;;;;;;;;;5089397;28;20484;-85
2021/05/17 10:35:32;;;;;;;9.65;5.05;;;;;;;;;;5072874;28;20104;-85
2021/05/17 10:38:13;;;;;;;7.82;5.00;;;;;;;;;;5088334;28;20115;-85
2021/05/17 10:40:41;;;;;;;6.38;4.80;;;;;;;;;;5088377;28;20093;-85
2021/05/17 10:43:18;;;;;;;7.07;4.30;;;;;;;;;;5070842;28;20105;-85
2021/05/17 10:48:20;;;;;;;5.93;3.78;;;;;;;;;;5087418;28;20044;-84
2021/05/17 10:50:48;;;;;;;4.78;3.20;;;;;;;;;;5071397;28;20044;-85
2021/05/17 10:53:33;;;;;;;4.00;3.47;;;;;;;;;;5054637;28;20274;-84
2021/05/17 10:55:59;;;;;;;5.18;3.50;;;;;;;;;;5071279;28;20495;-84
2021/05/17 11:01:49;;;;;;;7.32;4.05;;;;;;;;;;5070277;28;20063;-85
2021/05/17 11:04:27;;;;;;;4.90;3.92;;;;;;;;;;5084357;28;20488;-85
2021/05/17 11:07:12;;;;;;;7.75;4.75;;;;;;;;;;5087986;28;20555;-85
2021/05/17 11:09:47;;;;;;;9.77;6.07;;;;;;;;;;5087869;28;20047;-85
2021/05/17 11:12:29;;;;;;;12.98;6.47;;;;;;;;;;5072338;28;20036;-85
2021/05/17 11:15:01;;;;;;;7.90;5.80;;;;;;;;;;5070771;28;20047;-85
2021/05/17 11:17:27;;;;;;;;;;;;;;;;;;5088139;28;20032;-85
2021/05/17 11:19:53;;;;;;;8.57;5.15;;;;;;;;;;5072391;28;19943;-85
2021/05/17 11:22:19;;;;;;;7.47;5.03;;;;;;;;;;5087811;28;20468;-85
2021/05/17 11:24:47;;;;;;;7.05;4.43;;;;;;;;;;5087738;28;20040;-84
2021/05/17 11:27:13;;;;;;;6.10;4.10;;;;;;;;;;5072086;28;20369;-84
2021/05/17 11:29:39;;;;;;;6.43;4.05;;;;;;;;;;5087558;28;20063;-84
2021/05/17 11:32:09;;;;;;;5.68;3.53;;;;;;;;;;5087659;28;20123;-83
2021/05/17 11:34:35;;;;;;;6.63;3.75;;;;;;;;;;5087568;28;20113;-83
2021/05/17 11:37:11;;;;;;;4.93;2.85;;;;;;;;;;5070495;28;20088;-83
2021/05/17 11:39:38;;;;;;;3.92;2.22;;;;;;;;;;5087414;28;20477;-84
2021/05/17 11:42:08;;;;;;;3.03;2.15;;;;;;;;;;5087297;28;20032;-83
2021/05/17 11:47:23;;;;;;;3.28;1.92;;;;;;;;;;5086493;28;20109;-81
2021/05/17 11:49:49;;;;;;;3.65;2.10;;;;;;;;;;5054147;28;20052;-81
2021/05/17 11:52:19;;;;;;;3.85;2.45;;;;;;;;;;5070758;28;20184;-81
2021/05/17 11:54:49;;;;;;;4.53;2.35;;;;;;;;;;5075784;28;20582;-81
2021/05/17 11:57:15;;;;;;;5.30;2.30;;;;;;;;;;5075690;28;20407;-82
2021/05/17 11:59:41;;;;;;;3.88;2.40;;;;;;;;;;5091469;28;20097;-83
2021/05/17 12:02:08;;;;;;;3.72;2.50;;;;;;;;;;5075767;28;20043;-83
2021/05/17 12:04:36;;;;;;;3.67;2.40;;;;;;;;;;5087374;28;20451;-82
2021/05/17 12:07:03;;;;;;;4.28;2.30;;;;;;;;;;5074421;28;20488;-81
2021/05/17 12:09:34;;;;;;;4.20;2.20;;;;;;;;;;5058157;28;20121;-81
2021/05/17 12:12:00;;;;;;;2.08;1.83;;;;;;;;;;5074532;28;20059;-81
2021/05/17 12:14:26;;;;;;;4.40;1.75;;;;;;;;;;5075760;28;20036;-81
2021/05/17 12:16:59;;;;;;;3.17;2.10;;;;;;;;;;5074447;28;20111;-81
2021/05/17 12:19:25;;;;;;;3.15;2.10;;;;;;;;;;5075564;28;20399;-82
2021/05/17 12:21:51;;;;;;;4.45;2.40;;;;;;;;;;5074211;28;20048;-82
2021/05/17 12:24:27;;;;;;;3.38;2.20;;;;;;;;;;5057649;28;20040;-82
2021/05/17 12:26:58;;;;;;;3.70;2.05;;;;;;;;;;5075511;28;20040;-82
2021/05/17 12:29:24;;;;;;;3.45;2.45;;;;;;;;;;5057887;28;20506;-82
2021/05/17 12:31:51;;;;;;;2.47;2.05;;;;;;;;;;5075130;28;20123;-81
2021/05/17 12:34:17;;;;;;;2.50;1.70;;;;;;;;;;5072324;28;20128;-82
2021/05/17 12:36:43;;;;;;;4.85;1.58;;;;;;;;;;5073632;28;20488;-82
2021/05/17 12:39:13;;;;;;;2.15;1.63;;;;;;;;;;5073917;28;20392;-81
2021/05/17 12:41:40;;;;;;;3.45;1.73;;;;;;;;;;5057239;28;20495;-82
2021/05/17 12:44:26;;;;;;;2.92;1.50;;;;;;;;;;5073848;28;20033;-81
2021/05/17 12:47:05;;;;;;;1.25;1.15;;;;;;;;;;5073938;28;20059;-81
2021/05/17 12:49:43;;;;;;;4.07;1.30;;;;;;;;;;5057247;28;20444;-81
2021/05/17 12:52:09;;;;;;;1.45;1.13;;;;;;;;;;5074868;28;20094;-81
2021/05/17 12:54:35;;;;;;;1.73;0.93;;;;;;;;;;5073677;28;20037;-82
2021/05/17 12:57:05;;;;;;;1.83;0.90;;;;;;;;;;5073373;28;20113;-82
2021/05/17 12:59:31;;;;;;;1.63;1.20;;;;;;;;;;5057028;28;20102;-82
2021/05/17 13:02:09;;;;;;;1.52;1.20;;;;;;;;;;5073749;28;20499;-82
2021/05/17 13:04:36;;;;;;;1.00;0.88;;;;;;;;;;5072945;28;20041;-82
2021/05/17 13:07:03;;;;;;;1.98;1.10;;;;;;;;;;5056815;28;20044;-82
2021/05/17 13:09:32;;;;;;;1.27;1.10;;;;;;;;;;5073303;28;20064;-83
2021/05/17 13:11:59;;;;;;;2.00;1.25;;;;;;;;;;5072628;28;20085;-83
2021/05/17 13:14:25;;;;;;;1.30;1.10;;;;;;;;;;5073069;28;20472;-82
2021/05/17 13:16:55;;;;;;;2.08;1.52;;;;;;;;;;5074372;28;20045;-83
2021/05/17 13:30:29;;;;;;;1.85;1.20;;;;;;;;;;5087393;28;20058;-83
2021/05/17 13:32:56;;;;;;;3.95;1.58;;;;;;;;;;5089398;28;20033;-83
2021/05/17 13:35:22;;;;;;;2.35;1.77;;;;;;;;;;5074090;28;20034;-83
2021/05/17 13:37:48;;;;;;;1.58;1.40;;;;;;;;;;5072550;28;20143;-85
2021/05/17 13:40:14;;;;;;;1.50;1.20;;;;;;;;;;5089650;28;20441;-85
2021/05/17 13:42:41;;;;;;;1.77;1.55;;;;;;;;;;5072722;28;20040;-83
2021/05/17 13:45:07;;;;;;;2.40;1.63;;;;;;;;;;5072660;28;20060;-82
2021/05/17 13:47:33;;;;;;;2.85;1.60;;;;;;;;;;5089334;28;20036;-81
2021/05/17 13:49:59;;;;;;;2.08;1.48;;;;;;;;;;5072913;28;20083;-84
2021/05/17 13:52:25;;;;;;;1.63;1.40;;;;;;;;;;5073730;28;20388;-82
2021/05/17 13:54:51;;;;;;;2.85;2.10;;;;;;;;;;5073765;28;20036;-83
2021/05/17 13:57:17;;;;;;;2.63;2.03;;;;;;;;;;5089124;28;20044;-83
2021/05/17 13:59:44;;;;;;;7.15;4.20;;;;;;;;;;5073611;28;20040;-82
2021/05/17 14:02:10;;;;;;;9.68;5.72;;;;;;;;;;5073570;28;20036;-80
2021/05/17 14:04:36;;;;;;;9.70;5.75;;;;;;;;;;5073537;28;20041;-80
2021/05/17 14:07:03;;;;;;;8.55;6.85;;;;;;;;;;5072286;28;20544;-81
2021/05/17 14:09:29;;;;;;;17.55;9.10;;;;;;;;;;5073606;28;20380;-81
2021/05/17 14:11:56;;;;;;;12.18;8.43;;;;;;;;;;5071994;28;20090;-80
2021/05/17 14:14:22;;;;;;;11.48;8.32;;;;;;;;;;5073394;28;20041;-81
2021/05/17 14:16:54;;;;;;;11.18;7.80;;;;;;;;;;5070959;28;20040;-80
2021/05/17 14:19:20;;;;;;;13.90;7.57;;;;;;;;;;5088199;28;20047;-80
2021/05/17 14:21:46;;;;;;;11.48;6.75;;;;;;;;;;5073258;28;20040;-80
2021/05/17 14:24:12;;;;;;;12.10;7.35;;;;;;;;;;5073201;28;20127;-80
2021/05/17 14:26:38;;;;;;;13.02;7.68;;;;;;;;;;5067495;28;20532;-80
2021/05/17 14:29:04;;;;;;;11.63;7.78;;;;;;;;;;5052991;28;20037;-80
2021/05/17 14:31:31;;;;;;;14.13;8.57;;;;;;;;;;5052021;28;20048;-81
2021/05/17 14:34:01;;;;;;;10.93;8.20;;;;;;;;;;5052103;28;20064;-80
2021/05/17 14:36:28;;;;;;;11.45;8.18;;;;;;;;;;5052765;28;20071;-80
2021/05/17 14:38:54;;;;;;;12.30;8.80;;;;;;;;;;5035365;28;20108;-80
2021/05/17 14:41:22;;;;;;;11.77;8.60;;;;;;;;;;5051656;28;20072;-80
2021/05/17 14:43:48;;;;;;;10.63;7.22;;;;;;;;;;5052760;28;20453;-80
2021/05/17 14:46:15;;;;;;;10.23;7.22;;;;;;;;;;5051577;28;20504;-80
2021/05/17 14:48:41;;;;;;;11.50;7.30;;;;;;;;;;5052724;28;20050;-80
2021/05/17 14:51:07;;;;;;;8.55;6.05;;;;;;;;;;5051515;28;20036;-80
2021/05/17 14:53:33;;;;;;;8.52;6.63;;;;;;;;;;5052752;28;20045;-80
2021/05/17 14:55:59;;;;;;;8.63;6.32;;;;;;;;;;5034951;28;20043;-80
2021/05/17 14:58:25;;;;;;;7.60;6.15;;;;;;;;;;5052320;28;20037;-81
2021/05/17 15:00:51;;;;;;;7.00;5.38;;;;;;;;;;5052284;28;20044;-80
2021/05/17 15:03:18;;;;;;;9.82;5.93;;;;;;;;;;5051235;28;20037;-81
2021/05/17 15:05:44;;;;;;;8.45;5.90;;;;;;;;;;5052327;28;20099;-82
2021/05/17 15:08:12;;;;;;;9.93;5.38;;;;;;;;;;5050816;28;20488;-83
2021/05/17 15:10:38;;;;;;;7.80;5.07;;;;;;;;;;5050870;28;20087;-83
2021/05/17 15:13:04;;;;;;;7.05;5.10;;;;;;;;;;5051053;28;20067;-83
2021/05/17 15:15:31;;;;;;;7.38;5.20;;;;;;;;;;5034412;28;20045;-83
2021/05/17 15:17:57;;;;;;;6.78;5.10;;;;;;;;;;5050931;28;20040;-83